sensor_id;sensor_type;location;lat;lon;timestamp;P1;durP1;ratioP1;P2;durP2;ratioP2
13571;SDS011;6857;53.484;10.216;2023-04-01T00:00:47;12.20;;;6.60;;
13571;SDS011;6857;53.484;10.216;2023-04-01T00:03:13;13.13;;;6.40;;
13571;SDS011;6857;53.484;10.216;2023-04-01T00:05:40;10.87;;;5.80;;
13571;SDS011;6857;53.484;10.216;2023-04-01T00:08:06;10.30;;;6.33;;
13571;SDS011;6857;53.484;10.216;2023-04-01T00:10:32;8.13;;;5.33;;
13571;SDS011;6857;53.484;10.216;2023-04-01T00:12:58;12.63;;;6.20;;
13571;SDS011;6857;53.484;10.216;2023-04-01T00:15:24;13.80;;;6.33;;
13571;SDS011;6857;53.484;10.216;2023-04-01T00:17:50;12.90;;;5.90;;
13571;SDS011;6857;53.484;10.216;2023-04-01T00:20:16;10.50;;;5.80;;
13571;SDS011;6857;53.484;10.216;2023-04-01T00:22:42;11.43;;;5.57;;
13571;SDS011;6857;53.484;10.216;2023-04-01T00:25:08;9.50;;;5.70;;
13571;SDS011;6857;53.484;10.216;2023-04-01T00:27:34;12.23;;;6.07;;
13571;SDS011;6857;53.484;10.216;2023-04-01T00:30:00;11.20;;;6.00;;
13571;SDS011;6857;53.484;10.216;2023-04-01T00:32:26;9.27;;;5.37;;
13571;SDS011;6857;53.484;10.216;2023-04-01T00:34:52;10.00;;;6.23;;
13571;SDS011;6857;53.484;10.216;2023-04-01T00:37:19;12.30;;;6.17;;
13571;SDS011;6857;53.484;10.216;2023-04-01T00:39:45;14.40;;;6.37;;
13571;SDS011;6857;53.484;10.216;2023-04-01T00:42:12;11.87;;;5.97;;
13571;SDS011;6857;53.484;10.216;2023-04-01T00:44:38;12.23;;;5.93;;
13571;SDS011;6857;53.484;10.216;2023-04-01T00:47:05;12.43;;;5.83;;
13571;SDS011;6857;53.484;10.216;2023-04-01T00:49:32;12.90;;;6.17;;
13571;SDS011;6857;53.484;10.216;2023-04-01T00:51:59;9.77;;;6.07;;
13571;SDS011;6857;53.484;10.216;2023-04-01T00:54:27;12.03;;;5.47;;
13571;SDS011;6857;53.484;10.216;2023-04-01T00:56:55;8.30;;;5.97;;
13571;SDS011;6857;53.484;10.216;2023-04-01T00:59:45;8.93;;;5.73;;
13571;SDS011;6857;53.484;10.216;2023-04-01T01:02:10;12.07;;;6.53;;
13571;SDS011;6857;53.484;10.216;2023-04-01T01:04:37;10.20;;;5.73;;
13571;SDS011;6857;53.484;10.216;2023-04-01T01:12:25;10.10;;;6.50;;
13571;SDS011;6857;53.484;10.216;2023-04-01T01:15:11;10.27;;;6.40;;
13571;SDS011;6857;53.484;10.216;2023-04-01T01:20:29;9.13;;;5.00;;
13571;SDS011;6857;53.484;10.216;2023-04-01T01:25:58;9.30;;;5.27;;
13571;SDS011;6857;53.484;10.216;2023-04-01T01:31:03;9.77;;;5.63;;
13571;SDS011;6857;53.484;10.216;2023-04-01T01:36:16;11.63;;;5.87;;
13571;SDS011;6857;53.484;10.216;2023-04-01T01:38:43;10.27;;;5.77;;
13571;SDS011;6857;53.484;10.216;2023-04-01T01:41:10;12.27;;;5.83;;
13571;SDS011;6857;53.484;10.216;2023-04-01T01:43:38;10.63;;;5.57;;
13571;SDS011;6857;53.484;10.216;2023-04-01T01:46:09;9.90;;;6.00;;
13571;SDS011;6857;53.484;10.216;2023-04-01T01:48:36;11.70;;;5.30;;
13571;SDS011;6857;53.484;10.216;2023-04-01T01:51:04;11.30;;;5.60;;
13571;SDS011;6857;53.484;10.216;2023-04-01T01:53:31;11.37;;;5.50;;
13571;SDS011;6857;53.484;10.216;2023-04-01T01:55:57;11.70;;;5.90;;
13571;SDS011;6857;53.484;10.216;2023-04-01T01:58:24;11.47;;;4.93;;
13571;SDS011;6857;53.484;10.216;2023-04-01T02:01:00;12.33;;;5.13;;
13571;SDS011;6857;53.484;10.216;2023-04-01T02:03:29;6.67;;;4.73;;
13571;SDS011;6857;53.484;10.216;2023-04-01T02:05:57;8.87;;;5.00;;
13571;SDS011;6857;53.484;10.216;2023-04-01T02:08:47;13.70;;;5.20;;
13571;SDS011;6857;53.484;10.216;2023-04-01T02:11:12;11.00;;;5.30;;
13571;SDS011;6857;53.484;10.216;2023-04-01T02:16:05;8.43;;;5.00;;
13571;SDS011;6857;53.484;10.216;2023-04-01T02:18:34;11.47;;;5.40;;
13571;SDS011;6857;53.484;10.216;2023-04-01T02:21:02;8.23;;;5.23;;
13571;SDS011;6857;53.484;10.216;2023-04-01T02:23:30;7.83;;;4.17;;
13571;SDS011;6857;53.484;10.216;2023-04-01T02:25:57;6.80;;;4.20;;
13571;SDS011;6857;53.484;10.216;2023-04-01T02:28:23;8.10;;;4.50;;
13571;SDS011;6857;53.484;10.216;2023-04-01T02:30:50;11.77;;;4.87;;
13571;SDS011;6857;53.484;10.216;2023-04-01T02:33:17;9.50;;;4.33;;
13571;SDS011;6857;53.484;10.216;2023-04-01T02:35:43;7.60;;;4.67;;
13571;SDS011;6857;53.484;10.216;2023-04-01T02:38:09;8.87;;;4.30;;
13571;SDS011;6857;53.484;10.216;2023-04-01T02:40:42;9.00;;;4.30;;
13571;SDS011;6857;53.484;10.216;2023-04-01T02:43:08;10.07;;;4.90;;
13571;SDS011;6857;53.484;10.216;2023-04-01T02:45:34;8.00;;;4.73;;
13571;SDS011;6857;53.484;10.216;2023-04-01T02:48:00;7.70;;;4.60;;
13571;SDS011;6857;53.484;10.216;2023-04-01T02:50:26;8.57;;;4.30;;
13571;SDS011;6857;53.484;10.216;2023-04-01T02:52:52;9.90;;;4.60;;
13571;SDS011;6857;53.484;10.216;2023-04-01T02:55:18;7.60;;;4.77;;
13571;SDS011;6857;53.484;10.216;2023-04-01T02:57:44;6.53;;;4.27;;
13571;SDS011;6857;53.484;10.216;2023-04-01T03:00:10;8.70;;;5.03;;
13571;SDS011;6857;53.484;10.216;2023-04-01T03:02:37;8.60;;;5.00;;
13571;SDS011;6857;53.484;10.216;2023-04-01T03:05:04;11.10;;;5.23;;
13571;SDS011;6857;53.484;10.216;2023-04-01T03:07:30;7.20;;;4.37;;
13571;SDS011;6857;53.484;10.216;2023-04-01T03:09:56;8.33;;;4.70;;
13571;SDS011;6857;53.484;10.216;2023-04-01T03:12:22;7.90;;;5.13;;
13571;SDS011;6857;53.484;10.216;2023-04-01T03:14:48;10.93;;;5.03;;
13571;SDS011;6857;53.484;10.216;2023-04-01T03:17:14;10.67;;;5.40;;
13571;SDS011;6857;53.484;10.216;2023-04-01T03:19:40;9.93;;;4.63;;
13571;SDS011;6857;53.484;10.216;2023-04-01T03:22:06;12.80;;;5.57;;
13571;SDS011;6857;53.484;10.216;2023-04-01T03:24:32;10.70;;;5.07;;
13571;SDS011;6857;53.484;10.216;2023-04-01T03:26:58;10.33;;;5.43;;
13571;SDS011;6857;53.484;10.216;2023-04-01T03:29:24;10.73;;;5.10;;
13571;SDS011;6857;53.484;10.216;2023-04-01T03:31:50;12.03;;;5.70;;
13571;SDS011;6857;53.484;10.216;2023-04-01T03:34:16;10.20;;;5.83;;
13571;SDS011;6857;53.484;10.216;2023-04-01T03:36:42;9.20;;;5.63;;
13571;SDS011;6857;53.484;10.216;2023-04-01T03:39:08;14.80;;;6.27;;
13571;SDS011;6857;53.484;10.216;2023-04-01T03:41:35;9.77;;;5.87;;
13571;SDS011;6857;53.484;10.216;2023-04-01T03:44:01;11.73;;;6.33;;
13571;SDS011;6857;53.484;10.216;2023-04-01T03:46:27;10.60;;;6.50;;
13571;SDS011;6857;53.484;10.216;2023-04-01T03:48:53;11.27;;;6.50;;
13571;SDS011;6857;53.484;10.216;2023-04-01T03:51:19;11.37;;;7.17;;
13571;SDS011;6857;53.484;10.216;2023-04-01T03:53:45;12.73;;;6.97;;
13571;SDS011;6857;53.484;10.216;2023-04-01T03:56:11;11.77;;;7.13;;
13571;SDS011;6857;53.484;10.216;2023-04-01T03:58:37;11.23;;;7.70;;
13571;SDS011;6857;53.484;10.216;2023-04-01T04:01:12;11.53;;;6.67;;
13571;SDS011;6857;53.484;10.216;2023-04-01T04:03:38;10.47;;;7.07;;
13571;SDS011;6857;53.484;10.216;2023-04-01T04:06:04;11.00;;;7.00;;
13571;SDS011;6857;53.484;10.216;2023-04-01T04:08:30;11.90;;;6.57;;
13571;SDS011;6857;53.484;10.216;2023-04-01T04:10:56;12.93;;;7.90;;
13571;SDS011;6857;53.484;10.216;2023-04-01T04:13:22;11.37;;;6.80;;
13571;SDS011;6857;53.484;10.216;2023-04-01T04:15:48;11.20;;;6.87;;
13571;SDS011;6857;53.484;10.216;2023-04-01T04:18:14;10.17;;;7.50;;
13571;SDS011;6857;53.484;10.216;2023-04-01T04:20:44;12.70;;;9.80;;
13571;SDS011;6857;53.484;10.216;2023-04-01T04:23:13;10.27;;;7.10;;
13571;SDS011;6857;53.484;10.216;2023-04-01T04:25:39;12.90;;;7.13;;
13571;SDS011;6857;53.484;10.216;2023-04-01T04:28:05;9.20;;;6.07;;
13571;SDS011;6857;53.484;10.216;2023-04-01T04:30:31;8.03;;;6.07;;
13571;SDS011;6857;53.484;10.216;2023-04-01T04:32:57;10.03;;;6.43;;
13571;SDS011;6857;53.484;10.216;2023-04-01T04:35:23;13.67;;;6.43;;
13571;SDS011;6857;53.484;10.216;2023-04-01T04:37:49;8.33;;;6.17;;
13571;SDS011;6857;53.484;10.216;2023-04-01T04:40:14;10.70;;;5.90;;
13571;SDS011;6857;53.484;10.216;2023-04-01T04:42:40;11.67;;;6.43;;
13571;SDS011;6857;53.484;10.216;2023-04-01T04:45:06;8.30;;;5.80;;
13571;SDS011;6857;53.484;10.216;2023-04-01T04:47:32;11.03;;;7.10;;
13571;SDS011;6857;53.484;10.216;2023-04-01T04:49:58;10.07;;;6.63;;
13571;SDS011;6857;53.484;10.216;2023-04-01T04:52:24;8.10;;;6.13;;
13571;SDS011;6857;53.484;10.216;2023-04-01T04:54:50;8.53;;;6.57;;
13571;SDS011;6857;53.484;10.216;2023-04-01T04:57:16;9.37;;;6.20;;
13571;SDS011;6857;53.484;10.216;2023-04-01T04:59:42;9.07;;;6.67;;
13571;SDS011;6857;53.484;10.216;2023-04-01T05:02:08;11.77;;;7.17;;
13571;SDS011;6857;53.484;10.216;2023-04-01T05:04:35;10.70;;;6.77;;
13571;SDS011;6857;53.484;10.216;2023-04-01T05:07:01;8.87;;;6.27;;
13571;SDS011;6857;53.484;10.216;2023-04-01T05:09:27;8.80;;;6.40;;
13571;SDS011;6857;53.484;10.216;2023-04-01T05:11:53;8.73;;;6.03;;
13571;SDS011;6857;53.484;10.216;2023-04-01T05:14:19;7.30;;;5.97;;
13571;SDS011;6857;53.484;10.216;2023-04-01T05:16:45;6.70;;;5.50;;
13571;SDS011;6857;53.484;10.216;2023-04-01T05:19:11;7.13;;;5.93;;
13571;SDS011;6857;53.484;10.216;2023-04-01T05:21:37;8.53;;;6.27;;
13571;SDS011;6857;53.484;10.216;2023-04-01T05:24:03;9.17;;;5.90;;
13571;SDS011;6857;53.484;10.216;2023-04-01T05:26:29;8.83;;;6.20;;
13571;SDS011;6857;53.484;10.216;2023-04-01T05:28:55;10.63;;;6.30;;
13571;SDS011;6857;53.484;10.216;2023-04-01T05:31:21;8.33;;;6.27;;
13571;SDS011;6857;53.484;10.216;2023-04-01T05:33:48;8.90;;;6.13;;
13571;SDS011;6857;53.484;10.216;2023-04-01T05:36:15;10.40;;;5.63;;
13571;SDS011;6857;53.484;10.216;2023-04-01T05:38:41;9.83;;;6.40;;
13571;SDS011;6857;53.484;10.216;2023-04-01T05:41:08;9.80;;;5.97;;
13571;SDS011;6857;53.484;10.216;2023-04-01T05:43:37;8.33;;;6.47;;
13571;SDS011;6857;53.484;10.216;2023-04-01T05:46:03;9.27;;;6.20;;
13571;SDS011;6857;53.484;10.216;2023-04-01T05:48:29;8.80;;;6.60;;
13571;SDS011;6857;53.484;10.216;2023-04-01T05:50:55;4.30;;;3.90;;
13571;SDS011;6857;53.484;10.216;2023-04-01T05:53:21;3.67;;;2.63;;
13571;SDS011;6857;53.484;10.216;2023-04-01T05:55:47;3.40;;;2.83;;
13571;SDS011;6857;53.484;10.216;2023-04-01T05:58:13;3.13;;;2.33;;
13571;SDS011;6857;53.484;10.216;2023-04-01T06:00:39;1.90;;;1.50;;
13571;SDS011;6857;53.484;10.216;2023-04-01T06:03:05;1.87;;;1.17;;
13571;SDS011;6857;53.484;10.216;2023-04-01T06:05:36;1.80;;;1.20;;
13571;SDS011;6857;53.484;10.216;2023-04-01T06:08:11;3.50;;;1.30;;
13571;SDS011;6857;53.484;10.216;2023-04-01T06:10:40;2.60;;;1.37;;
13571;SDS011;6857;53.484;10.216;2023-04-01T06:13:20;2.33;;;1.70;;
13571;SDS011;6857;53.484;10.216;2023-04-01T06:16:06;1.70;;;1.40;;
13571;SDS011;6857;53.484;10.216;2023-04-01T06:26:24;2.20;;;1.70;;
13571;SDS011;6857;53.484;10.216;2023-04-01T06:31:34;2.70;;;0.90;;
13571;SDS011;6857;53.484;10.216;2023-04-01T06:39:22;1.43;;;1.20;;
13571;SDS011;6857;53.484;10.216;2023-04-01T06:42:06;1.13;;;1.03;;
13571;SDS011;6857;53.484;10.216;2023-04-01T06:47:04;1.23;;;1.00;;
13571;SDS011;6857;53.484;10.216;2023-04-01T06:49:42;2.20;;;1.23;;
13571;SDS011;6857;53.484;10.216;2023-04-01T06:54:55;1.33;;;1.23;;
13571;SDS011;6857;53.484;10.216;2023-04-01T06:57:29;1.93;;;1.60;;
13571;SDS011;6857;53.484;10.216;2023-04-01T06:59:57;1.20;;;1.07;;
13571;SDS011;6857;53.484;10.216;2023-04-01T07:02:38;1.40;;;1.10;;
13571;SDS011;6857;53.484;10.216;2023-04-01T07:05:05;1.70;;;1.17;;
13571;SDS011;6857;53.484;10.216;2023-04-01T07:07:36;1.37;;;1.10;;
13571;SDS011;6857;53.484;10.216;2023-04-01T07:10:15;1.10;;;0.90;;
13571;SDS011;6857;53.484;10.216;2023-04-01T07:12:45;1.40;;;1.07;;
13571;SDS011;6857;53.484;10.216;2023-04-01T07:15:15;2.00;;;0.90;;
13571;SDS011;6857;53.484;10.216;2023-04-01T07:17:42;1.20;;;1.10;;
13571;SDS011;6857;53.484;10.216;2023-04-01T07:20:17;2.10;;;1.10;;
13571;SDS011;6857;53.484;10.216;2023-04-01T07:22:47;1.13;;;0.97;;
13571;SDS011;6857;53.484;10.216;2023-04-01T07:25:24;0.80;;;0.70;;
13571;SDS011;6857;53.484;10.216;2023-04-01T07:28:02;1.73;;;1.10;;
13571;SDS011;6857;53.484;10.216;2023-04-01T07:30:39;0.70;;;0.60;;
13571;SDS011;6857;53.484;10.216;2023-04-01T07:33:12;0.87;;;0.70;;
13571;SDS011;6857;53.484;10.216;2023-04-01T07:36:03;0.80;;;0.60;;
13571;SDS011;6857;53.484;10.216;2023-04-01T07:48:58;0.97;;;0.60;;
13571;SDS011;6857;53.484;10.216;2023-04-01T07:51:38;0.83;;;0.63;;
13571;SDS011;6857;53.484;10.216;2023-04-01T07:54:08;0.57;;;0.50;;
13571;SDS011;6857;53.484;10.216;2023-04-01T07:56:44;0.50;;;0.40;;
13571;SDS011;6857;53.484;10.216;2023-04-01T08:01:49;0.60;;;0.50;;
13571;SDS011;6857;53.484;10.216;2023-04-01T08:04:25;2.20;;;0.70;;
13571;SDS011;6857;53.484;10.216;2023-04-01T08:09:36;0.90;;;0.40;;
13571;SDS011;6857;53.484;10.216;2023-04-01T08:12:20;2.03;;;0.70;;
13571;SDS011;6857;53.484;10.216;2023-04-01T08:14:53;0.80;;;0.57;;
13571;SDS011;6857;53.484;10.216;2023-04-01T08:22:42;1.53;;;0.67;;
13571;SDS011;6857;53.484;10.216;2023-04-01T08:25:19;0.60;;;0.60;;
13571;SDS011;6857;53.484;10.216;2023-04-01T08:27:47;0.53;;;0.50;;
13571;SDS011;6857;53.484;10.216;2023-04-01T08:30:19;0.77;;;0.60;;
13571;SDS011;6857;53.484;10.216;2023-04-01T08:32:54;0.60;;;0.60;;
13571;SDS011;6857;53.484;10.216;2023-04-01T08:35:25;0.57;;;0.57;;
13571;SDS011;6857;53.484;10.216;2023-04-01T08:37:52;0.60;;;0.60;;
13571;SDS011;6857;53.484;10.216;2023-04-01T08:50:53;0.80;;;0.60;;
13571;SDS011;6857;53.484;10.216;2023-04-01T09:01:17;0.67;;;0.60;;
13571;SDS011;6857;53.484;10.216;2023-04-01T09:03:52;1.63;;;0.60;;
13571;SDS011;6857;53.484;10.216;2023-04-01T09:11:21;0.67;;;0.63;;
13571;SDS011;6857;53.484;10.216;2023-04-01T09:34:11;0.80;;;0.70;;
13571;SDS011;6857;53.484;10.216;2023-04-01T09:36:44;0.73;;;0.63;;
13571;SDS011;6857;53.484;10.216;2023-04-01T09:39:56;0.40;;;0.40;;
13571;SDS011;6857;53.484;10.216;2023-04-01T09:44:56;1.87;;;0.70;;
13571;SDS011;6857;53.484;10.216;2023-04-01T09:53:00;1.27;;;0.80;;
13571;SDS011;6857;53.484;10.216;2023-04-01T09:58:09;0.60;;;0.60;;
13571;SDS011;6857;53.484;10.216;2023-04-01T10:24:43;0.70;;;0.60;;
13571;SDS011;6857;53.484;10.216;2023-04-01T10:46:07;0.60;;;0.60;;
13571;SDS011;6857;53.484;10.216;2023-04-01T10:56:15;1.13;;;0.70;;
13571;SDS011;6857;53.484;10.216;2023-04-01T11:27:10;0.57;;;0.50;;
13571;SDS011;6857;53.484;10.216;2023-04-01T11:40:43;1.37;;;0.80;;
13571;SDS011;6857;53.484;10.216;2023-04-01T11:45:48;1.20;;;1.10;;
13571;SDS011;6857;53.484;10.216;2023-04-01T11:53:36;3.27;;;1.53;;
13571;SDS011;6857;53.484;10.216;2023-04-01T11:56:21;2.07;;;1.60;;
13571;SDS011;6857;53.484;10.216;2023-04-01T12:01:51;2.50;;;1.60;;
13571;SDS011;6857;53.484;10.216;2023-04-01T12:12:38;4.07;;;2.17;;
13571;SDS011;6857;53.484;10.216;2023-04-01T12:39:34;3.00;;;2.10;;
13571;SDS011;6857;53.484;10.216;2023-04-01T12:47:21;3.03;;;1.90;;
13571;SDS011;6857;53.484;10.216;2023-04-01T13:05:39;4.30;;;2.70;;
13571;SDS011;6857;53.484;10.216;2023-04-01T13:08:14;3.80;;;2.33;;
13571;SDS011;6857;53.484;10.216;2023-04-01T13:10:50;2.83;;;2.20;;
13571;SDS011;6857;53.484;10.216;2023-04-01T13:13:37;2.83;;;2.20;;
13571;SDS011;6857;53.484;10.216;2023-04-01T13:16:07;4.97;;;2.50;;
13571;SDS011;6857;53.484;10.216;2023-04-01T13:18:56;4.17;;;2.40;;
13571;SDS011;6857;53.484;10.216;2023-04-01T13:21:28;3.77;;;2.13;;
13571;SDS011;6857;53.484;10.216;2023-04-01T13:26:39;3.17;;;2.23;;
13571;SDS011;6857;53.484;10.216;2023-04-01T13:29:09;3.10;;;1.90;;
13571;SDS011;6857;53.484;10.216;2023-04-01T13:31:39;3.50;;;1.90;;
13571;SDS011;6857;53.484;10.216;2023-04-01T13:44:14;4.63;;;2.13;;
13571;SDS011;6857;53.484;10.216;2023-04-01T13:49:46;4.53;;;1.90;;
13571;SDS011;6857;53.484;10.216;2023-04-01T13:52:27;2.60;;;2.20;;
13571;SDS011;6857;53.484;10.216;2023-04-01T13:57:26;4.37;;;1.87;;
13571;SDS011;6857;53.484;10.216;2023-04-01T14:00:07;3.80;;;1.93;;
13571;SDS011;6857;53.484;10.216;2023-04-01T14:05:28;3.87;;;2.10;;
13571;SDS011;6857;53.484;10.216;2023-04-01T14:13:27;3.13;;;2.00;;
13571;SDS011;6857;53.484;10.216;2023-04-01T14:16:00;3.60;;;2.17;;
13571;SDS011;6857;53.484;10.216;2023-04-01T14:23:58;2.97;;;2.10;;
13571;SDS011;6857;53.484;10.216;2023-04-01T14:26:30;3.73;;;2.50;;
13571;SDS011;6857;53.484;10.216;2023-04-01T14:31:34;4.50;;;2.67;;
13571;SDS011;6857;53.484;10.216;2023-04-01T14:42:03;5.30;;;2.83;;
13571;SDS011;6857;53.484;10.216;2023-04-01T14:47:20;6.43;;;2.90;;
13571;SDS011;6857;53.484;10.216;2023-04-01T14:49:50;4.83;;;2.27;;
13571;SDS011;6857;53.484;10.216;2023-04-01T14:52:21;3.80;;;2.60;;
13571;SDS011;6857;53.484;10.216;2023-04-01T14:54:49;4.73;;;2.63;;
13571;SDS011;6857;53.484;10.216;2023-04-01T14:57:23;4.77;;;2.33;;
13571;SDS011;6857;53.484;10.216;2023-04-01T14:59:54;3.93;;;2.67;;
13571;SDS011;6857;53.484;10.216;2023-04-01T15:15:26;5.63;;;3.57;;
13571;SDS011;6857;53.484;10.216;2023-04-01T15:20:52;6.73;;;3.03;;
13571;SDS011;6857;53.484;10.216;2023-04-01T15:26:29;4.30;;;2.80;;
13571;SDS011;6857;53.484;10.216;2023-04-01T15:38:56;6.03;;;4.30;;
13571;SDS011;6857;53.484;10.216;2023-04-01T15:46:55;5.20;;;3.40;;
13571;SDS011;6857;53.484;10.216;2023-04-01T15:57:18;7.70;;;3.47;;
13571;SDS011;6857;53.484;10.216;2023-04-01T16:02:42;7.80;;;3.90;;
13571;SDS011;6857;53.484;10.216;2023-04-01T16:07:48;7.03;;;3.93;;
13571;SDS011;6857;53.484;10.216;2023-04-01T16:10:17;8.00;;;3.70;;
13571;SDS011;6857;53.484;10.216;2023-04-01T16:15:44;9.87;;;4.20;;
13571;SDS011;6857;53.484;10.216;2023-04-01T16:20:55;8.07;;;3.90;;
13571;SDS011;6857;53.484;10.216;2023-04-01T16:23:29;6.80;;;3.93;;
13571;SDS011;6857;53.484;10.216;2023-04-01T16:26:06;5.87;;;3.80;;
13571;SDS011;6857;53.484;10.216;2023-04-01T16:28:35;7.03;;;3.67;;
13571;SDS011;6857;53.484;10.216;2023-04-01T16:33:40;8.67;;;3.83;;
13571;SDS011;6857;53.484;10.216;2023-04-01T16:36:13;7.63;;;3.60;;
13571;SDS011;6857;53.484;10.216;2023-04-01T16:38:45;6.17;;;3.40;;
13571;SDS011;6857;53.484;10.216;2023-04-01T16:41:24;6.67;;;3.60;;
13571;SDS011;6857;53.484;10.216;2023-04-01T16:43:52;7.10;;;3.53;;
13571;SDS011;6857;53.484;10.216;2023-04-01T16:49:00;8.90;;;4.37;;
13571;SDS011;6857;53.484;10.216;2023-04-01T16:52:04;7.50;;;4.17;;
13571;SDS011;6857;53.484;10.216;2023-04-01T16:56:54;7.20;;;3.97;;
13571;SDS011;6857;53.484;10.216;2023-04-01T17:02:10;8.53;;;3.87;;
13571;SDS011;6857;53.484;10.216;2023-04-01T17:04:57;7.03;;;3.80;;
13571;SDS011;6857;53.484;10.216;2023-04-01T17:10:16;10.80;;;4.50;;
13571;SDS011;6857;53.484;10.216;2023-04-01T17:20:19;9.43;;;4.70;;
13571;SDS011;6857;53.484;10.216;2023-04-01T17:22:54;9.27;;;4.53;;
13571;SDS011;6857;53.484;10.216;2023-04-01T17:25:27;7.43;;;4.63;;
13571;SDS011;6857;53.484;10.216;2023-04-01T17:28:14;8.63;;;4.40;;
13571;SDS011;6857;53.484;10.216;2023-04-01T17:30:47;6.33;;;3.73;;
13571;SDS011;6857;53.484;10.216;2023-04-01T17:41:08;5.83;;;2.87;;
13571;SDS011;6857;53.484;10.216;2023-04-01T17:43:52;10.47;;;3.80;;
13571;SDS011;6857;53.484;10.216;2023-04-01T17:51:55;8.23;;;3.60;;
13571;SDS011;6857;53.484;10.216;2023-04-01T18:04:47;4.83;;;3.03;;
13571;SDS011;6857;53.484;10.216;2023-04-01T18:10:17;4.77;;;3.00;;
13571;SDS011;6857;53.484;10.216;2023-04-01T18:23:25;4.83;;;2.77;;
13571;SDS011;6857;53.484;10.216;2023-04-01T18:26:26;5.73;;;3.10;;
13571;SDS011;6857;53.484;10.216;2023-04-01T18:28:49;6.50;;;4.10;;
13571;SDS011;6857;53.484;10.216;2023-04-01T18:31:19;5.87;;;2.87;;
13571;SDS011;6857;53.484;10.216;2023-04-01T18:36:40;4.87;;;2.80;;
13571;SDS011;6857;53.484;10.216;2023-04-01T18:39:16;6.30;;;3.10;;
13571;SDS011;6857;53.484;10.216;2023-04-01T18:44:34;6.43;;;3.30;;
13571;SDS011;6857;53.484;10.216;2023-04-01T18:47:22;5.40;;;3.07;;
13571;SDS011;6857;53.484;10.216;2023-04-01T18:49:59;9.60;;;3.13;;
13571;SDS011;6857;53.484;10.216;2023-04-01T18:52:37;6.60;;;3.47;;
13571;SDS011;6857;53.484;10.216;2023-04-01T18:55:18;6.80;;;3.27;;
13571;SDS011;6857;53.484;10.216;2023-04-01T18:57:54;5.70;;;3.40;;
13571;SDS011;6857;53.484;10.216;2023-04-01T19:07:49;5.23;;;3.40;;
13571;SDS011;6857;53.484;10.216;2023-04-01T19:10:37;6.23;;;2.70;;
13571;SDS011;6857;53.484;10.216;2023-04-01T19:15:52;5.67;;;3.03;;
13571;SDS011;6857;53.484;10.216;2023-04-01T19:20:54;3.83;;;2.37;;
13571;SDS011;6857;53.484;10.216;2023-04-01T19:23:30;3.20;;;2.37;;
13571;SDS011;6857;53.484;10.216;2023-04-01T19:25:58;7.30;;;3.07;;
13571;SDS011;6857;53.484;10.216;2023-04-01T19:31:08;4.33;;;2.60;;
13571;SDS011;6857;53.484;10.216;2023-04-01T19:41:28;5.17;;;2.80;;
13571;SDS011;6857;53.484;10.216;2023-04-01T19:46:35;3.43;;;2.63;;
13571;SDS011;6857;53.484;10.216;2023-04-01T19:56:52;5.73;;;3.37;;
13571;SDS011;6857;53.484;10.216;2023-04-01T19:59:23;10.90;;;6.67;;
13571;SDS011;6857;53.484;10.216;2023-04-01T20:01:58;8.37;;;4.67;;
13571;SDS011;6857;53.484;10.216;2023-04-01T20:04:43;11.87;;;8.13;;
13571;SDS011;6857;53.484;10.216;2023-04-01T20:07:19;5.97;;;2.73;;
13571;SDS011;6857;53.484;10.216;2023-04-01T20:14:51;5.40;;;3.40;;
13571;SDS011;6857;53.484;10.216;2023-04-01T20:17:21;6.50;;;4.00;;
13571;SDS011;6857;53.484;10.216;2023-04-01T20:22:38;6.50;;;;;
13571;SDS011;6857;53.484;10.216;2023-04-01T20:25:13;18.27;;;11.63;;
13571;SDS011;6857;53.484;10.216;2023-04-01T20:27:44;7.23;;;3.67;;
13571;SDS011;6857;53.484;10.216;2023-04-01T20:35:39;11.63;;;6.67;;
13571;SDS011;6857;53.484;10.216;2023-04-01T20:38:16;4.97;;;3.00;;
13571;SDS011;6857;53.484;10.216;2023-04-01T20:40:47;7.43;;;4.63;;
13571;SDS011;6857;53.484;10.216;2023-04-01T20:45:58;5.03;;;2.47;;
13571;SDS011;6857;53.484;10.216;2023-04-01T20:48:31;4.53;;;3.63;;
13571;SDS011;6857;53.484;10.216;2023-04-01T20:51:06;9.27;;;3.57;;
13571;SDS011;6857;53.484;10.216;2023-04-01T21:01:13;6.40;;;2.83;;
13571;SDS011;6857;53.484;10.216;2023-04-01T21:03:45;5.00;;;2.67;;
13571;SDS011;6857;53.484;10.216;2023-04-01T21:06:21;6.27;;;3.00;;
13571;SDS011;6857;53.484;10.216;2023-04-01T21:08:56;5.70;;;3.23;;
13571;SDS011;6857;53.484;10.216;2023-04-01T21:18:58;5.03;;;2.00;;
13571;SDS011;6857;53.484;10.216;2023-04-01T21:44:41;4.73;;;2.00;;
13571;SDS011;6857;53.484;10.216;2023-04-01T21:47:18;3.47;;;1.60;;
13571;SDS011;6857;53.484;10.216;2023-04-01T21:49:59;4.13;;;1.50;;
13571;SDS011;6857;53.484;10.216;2023-04-01T22:00:25;3.33;;;1.60;;
13571;SDS011;6857;53.484;10.216;2023-04-01T22:08:54;3.73;;;1.57;;
13571;SDS011;6857;53.484;10.216;2023-04-01T22:13:31;5.87;;;2.07;;
13571;SDS011;6857;53.484;10.216;2023-04-01T22:18:39;4.10;;;1.60;;
13571;SDS011;6857;53.484;10.216;2023-04-01T22:26:34;23.33;;;8.43;;
13571;SDS011;6857;53.484;10.216;2023-04-01T22:29:04;71.77;;;28.37;;
13571;SDS011;6857;53.484;10.216;2023-04-01T22:31:41;24.90;;;10.13;;
13571;SDS011;6857;53.484;10.216;2023-04-01T22:34:12;3.40;;;1.90;;
13571;SDS011;6857;53.484;10.216;2023-04-01T22:36:47;4.90;;;2.27;;
13571;SDS011;6857;53.484;10.216;2023-04-01T22:39:32;5.40;;;2.20;;
13571;SDS011;6857;53.484;10.216;2023-04-01T22:50:20;5.87;;;1.70;;
13571;SDS011;6857;53.484;10.216;2023-04-01T22:52:49;7.27;;;2.10;;
13571;SDS011;6857;53.484;10.216;2023-04-01T22:55:24;3.60;;;1.50;;
13571;SDS011;6857;53.484;10.216;2023-04-01T22:57:58;4.37;;;1.80;;
13571;SDS011;6857;53.484;10.216;2023-04-01T23:00:26;4.10;;;1.47;;
13571;SDS011;6857;53.484;10.216;2023-04-01T23:03:11;2.07;;;1.10;;
13571;SDS011;6857;53.484;10.216;2023-04-01T23:05:52;5.10;;;2.17;;
13571;SDS011;6857;53.484;10.216;2023-04-01T23:10:58;2.70;;;1.30;;
13571;SDS011;6857;53.484;10.216;2023-04-01T23:13:29;4.60;;;1.60;;
13571;SDS011;6857;53.484;10.216;2023-04-01T23:15:57;5.37;;;1.57;;
13571;SDS011;6857;53.484;10.216;2023-04-01T23:18:33;3.03;;;1.83;;
13571;SDS011;6857;53.484;10.216;2023-04-01T23:23:42;6.17;;;2.30;;
13571;SDS011;6857;53.484;10.216;2023-04-01T23:31:06;4.47;;;1.40;;
13571;SDS011;6857;53.484;10.216;2023-04-01T23:33:54;4.50;;;1.20;;
13571;SDS011;6857;53.484;10.216;2023-04-01T23:36:20;3.30;;;1.30;;
13571;SDS011;6857;53.484;10.216;2023-04-01T23:38:47;4.23;;;1.60;;
13571;SDS011;6857;53.484;10.216;2023-04-01T23:41:23;9.43;;;2.50;;
13571;SDS011;6857;53.484;10.216;2023-04-01T23:44:01;3.33;;;1.10;;
13571;SDS011;6857;53.484;10.216;2023-04-01T23:46:28;5.20;;;1.20;;
13571;SDS011;6857;53.484;10.216;2023-04-01T23:48:55;3.63;;;1.67;;
13571;SDS011;6857;53.484;10.216;2023-04-01T23:51:22;2.53;;;1.60;;
13571;SDS011;6857;53.484;10.216;2023-04-01T23:54:04;6.67;;;1.40;;
13571;SDS011;6857;53.484;10.216;2023-04-01T23:56:38;2.73;;;1.47;;
13571;SDS011;6857;53.484;10.216;2023-04-01T23:59:10;5.33;;;1.50;;
